Dakin Peak, Santa Catalina Island Weather observations

Data are for 10 minute period ending at time listed.
 Day   Time   Solar   Ave.   Ave.  Ave.  Vector    Max.   Stn.    Total
  of    of     Rad.   Air    Rel.  Wind   Wind     Wind   Baro.  Precip.
Year   Day            Temp.  Hum.  Speed  Dir.     Gust   Pres.         
2016   (PST)   W/m2    F      %     mph   deg.      mph    mb.     in.  
------------------------------------------------------------------------
 242    5:10    0.0    67   59.5     5    143.0     6.6    999.0   0.00  
 242    5:20    0.0    67   60.2     4    146.6     6.0    999.0   0.00  
 242    5:30    3.0    67   57.8     5    157.7     6.6    999.0   0.00  
 242    5:40    8.0    67   62.2     5    141.5     6.0    999.0   0.00  
 242    5:50   20.0    66   65.7     4    126.7     6.0    999.0   0.00  
 242    6:00   38.0    66   68.2     4    117.8     5.4    999.0   0.00  
 242    6:10   63.0    66   69.7     4    138.3     4.8    999.0   0.00  
 242    6:20   90.0    71   53.6     4    160.4     4.8    999.0   0.00  
 242    6:30  115.0    69   66.6     4    155.5     6.0    999.0   0.00  
 242    6:40  141.0    69   65.0     4    173.4     6.0    999.0   0.00  
 242    6:50  168.0    71   58.2     4    170.2     5.4    999.0   0.00  
 242    7:00  195.0    71   73.7     3    115.6     4.8    999.0   0.00  
 242    7:10  223.0    72   72.1     2    110.6     3.6    999.0   0.00  
 242    7:20  251.0    71   75.6     4    112.9     6.6    999.0   0.00  
 242    7:30  277.0    71   76.6     4    117.7     6.6    999.0   0.00  
 242    7:40  305.0    72   74.5     4    121.6     6.0    999.0   0.00  
 242    7:50  330.0    72   75.4     4    121.2     6.0    999.0   0.00  
 242    8:00  359.0    74   68.4     3    191.1     4.8    999.0   0.00  
 242    8:10  385.0    75   64.4     4    170.9     5.4    999.0   0.00  
 242    8:20  410.0    75   67.9     4    126.2     8.4    999.0   0.00  
 242    8:30  435.0    76   67.0     5    106.1     7.2    999.0   0.00  
 242    8:40  458.0    74   71.0     6    110.9     8.4    999.0   0.00  
 242    8:50  481.0    74   71.7     6    113.3     8.4    999.0   0.00  
 242    9:00  503.0    74   71.0     6    116.1     7.8    999.0   0.00  
 242    9:10  525.0    75   69.9     5    115.1     7.8    999.0   0.00  
 242    9:20  545.0    75   69.9     5    108.0     9.6    999.0   0.00  
 242    9:30  565.0    75   70.0     5    109.3     8.4    999.0   0.00  
 242    9:40  583.0    75   69.6     5    113.3     7.8    999.0   0.00  
 242    9:50  601.0    77   65.8     5    115.7     7.8    999.0   0.00  
 242   10:00  617.0    76   67.3     6    111.7     8.4    999.0   0.00  
 242   10:10  632.0    76   66.8     6    114.1     8.4    999.0   0.00  
 242   10:20  646.0    77   66.4     6    115.5     9.0    999.0   0.00  
 242   10:30  659.0    76   68.4     7    108.4    10.8    999.0   0.00  
 242   10:40  670.0    76   67.5     6    115.9     8.4    999.0   0.00  
 242   10:50  679.0    78   64.9     5    105.5     7.2    999.0   0.00  
 242   11:00  688.0    78   63.3     5    121.0     8.4    999.0   0.00  
 242   11:10  696.0    78   65.1     6    106.5     9.0    999.0   0.00  
 242   11:20  701.0    77   66.3     6    114.7     9.0    999.0   0.00  
 242   11:30  706.0    77   66.3     6    112.1     9.0    999.0   0.00  
 242   11:40  710.0    78   63.4     5    127.2     7.2    999.0   0.00  
 242   11:50  713.0    78   63.0     6    110.8     7.8    999.0   0.00  
 242   12:00  715.0    81   57.8     5    108.9     7.2    999.0   0.00  
 242   12:10  713.0    80   59.2     4    104.8     6.6    999.0   0.00  
 242   12:20  712.0    83   51.8     4     87.6     5.4    999.0   0.00  
 242   12:30  710.0    85   44.2     4     57.9     7.2    999.0   0.00  
 242   12:40  705.0    84   47.2     4     58.9     7.2    999.0   0.00  
 242   12:50  699.0    86   40.1     4     44.6     6.6    999.0   0.00  
 242   13:00  690.0    84   49.7     3     71.6     6.0    999.0   0.00  
 242   13:10  682.0    85   47.0     3     66.6     6.0    999.0   0.00  
 242   13:20  672.0    86   46.3     3     46.4     5.4    999.0   0.00  
 242   13:30  660.0    86   48.0     4     27.0     6.6    999.0   0.00  
 242   13:40  649.0    88   44.7     4     34.3     7.2    999.0   0.00  
 242   13:50  634.0    85   50.7     3     46.3     6.6    999.0   0.00  
 242   14:00  619.0    88   45.3     3     28.5     6.0    999.0   0.00  
 242   14:10  603.0    89   42.7     3    353.2     6.6    999.0   0.00  
 242   14:20  585.0    90   41.3     4    343.9     7.8    999.0   0.00  
 242   14:30  565.0    89   41.3     4    346.7     7.2    999.0   0.00  
 242   14:40  546.0    92   30.9     5    282.4     9.6    999.0   0.00  
 242   14:50  526.0    92   33.1     4    318.8     7.8    999.0   0.00  
 242   15:00  505.0    90   33.0     6    311.3     8.4    999.0   0.00  
 242   15:10  482.0    90   32.8     5    321.0     9.0    999.0   0.00  
 242   15:20  458.0    90   32.2     5    315.5     8.4    999.0   0.00  
 242   15:30  433.0    92   26.8     7    300.6    10.2    999.0   0.00  
 242   15:40  407.0    92   24.8     9    284.4    14.9    999.0   0.00  
 242   15:50  382.0    92   25.3     8    267.6    13.7    999.0   0.00  
 242   16:00  354.0    91   23.0     9    292.9    14.9    999.0   0.00  
 242   16:10  327.0    90   21.4    12    285.2    16.1    999.0   0.00  
 242   16:20  302.0    90   21.4    12    290.7    14.9    999.0   0.00  
 242   16:30  273.0    89   24.4    10    292.3    13.1    999.0   0.00  
 242   16:40  245.0    89   26.0     9    287.1    13.1    999.0   0.00  
 242   16:50  216.0    88   25.9    10    280.4    13.7    999.0   0.00  
 242   17:00  188.0    87   25.2    12    281.3    17.9    999.0   0.00  
 242   17:10  159.0    88   21.2    13    279.9    17.9    999.0   0.00  
 242   17:20  133.0    88   20.0    16    283.3    20.9    999.0   0.00  
 242   17:30  107.0    87   21.6    14    283.8    22.7    999.0   0.00  
 242   17:40   83.0    86   23.6    13    283.5    19.7    999.0   0.00  
 242   17:50   58.0    86   22.3    18    283.1    28.6    999.0   0.00  
 242   18:00   36.0    86   22.0    19    281.3    30.4    999.0   0.00  
 242   18:10   20.0    85   22.2    17    281.8    26.8    999.0   0.00  
 242   18:20    9.0    85   21.6    18    277.1    31.0    999.0   0.00  
 242   18:30    3.0    85   21.8    19    281.0    31.6    999.0   0.00  
 242   18:40    0.0    85   21.9    16    280.9    35.2    999.0   0.00  
 242   18:50    0.0    85   21.2    19    281.0    31.6    999.0   0.00  
 242   19:00    0.0    85   20.2    17    275.7    30.4    999.0   0.00  
 242   19:10    0.0    85   20.3    15    276.9    28.6    999.0   0.00  
 242   19:20    0.0    86   20.3    16    276.0    26.8    999.0   0.00  
 242   19:30    0.0    85   21.8    16    282.6    25.6    999.0   0.00  
 242   19:40    0.0    85   24.2    16    279.3    30.4    999.0   0.00  
 242   19:50    0.0    84   28.0    13    279.9    19.1    999.0   0.00  
 242   20:00    0.0    83   30.2    13    274.9    16.7    999.0   0.00  
 242   20:10    0.0    83   30.9    12    276.3    16.1    999.0   0.00  
 242   20:20    0.0    83   31.8    11    283.9    14.3    999.0   0.00  
 242   20:30    0.0    82   32.9    11    284.1    15.5    999.0   0.00  
 242   20:40    0.0    82   32.7    12    278.0    16.7    999.0   0.00  
 242   20:50    0.0    83   30.8    11    280.6    14.9    999.0   0.00  
 242   21:00    0.0    83   30.7    12    277.1    13.7    999.0   0.00  
 242   21:10    0.0    84   29.8    12    281.3    15.5    999.0   0.00  
 242   21:20    0.0    84   28.5    12    282.0    14.9    999.0   0.00  
 242   21:30    0.0    84   28.8    10    285.6    12.5    999.0   0.00  
 242   21:40    0.0    83   29.7    10    285.9    14.9    999.0   0.00  
 242   21:50    0.0    82   33.4     9    295.0    13.7    999.0   0.00  
 242   22:00    0.0    80   35.4    10    291.2    14.9    999.0   0.00  
 242   22:10    0.0    80   34.5    10    285.3    14.9    999.0   0.00  
 242   22:20    0.0    79   36.6    10    289.7    12.5    999.0   0.00  
 242   22:30    0.0    78   41.2    10    295.8    13.1    999.0   0.00  
 242   22:40    0.0    78   38.9    12    297.9    16.7    999.0   0.00  
 242   22:50    0.0    79   36.9    12    290.8    15.5    999.0   0.00  
 242   23:00    0.0    80   35.1    10    286.0    16.7    999.0   0.00  
 242   23:10    0.0    78   39.0     6    287.7     9.0    999.0   0.00  
 242   23:20    0.0    77   42.3     5    284.5     8.4    999.0   0.00  
 242   23:30    0.0    75   44.3     9    268.8    11.3    999.0   0.00  
 242   23:40    0.0    77   39.0     9    273.5    11.9    999.0   0.00  
 242   23:50    0.0    77   40.0     5    277.6     9.6    999.0   0.00  
 243    0:00    0.0    76   40.2     7    266.8     9.0    999.0   0.00  
 243    0:10    0.0    77   39.8     8    267.5    10.8    999.0   0.00  
 243    0:20    0.0    78   38.4     4    290.1     7.8    999.0   0.00  
 243    0:30    0.0    77   38.9     5    279.0     7.8    999.0   0.00  
 243    0:40    0.0    81   32.5     7    289.0    11.9    999.0   0.00  
 243    0:50    0.0    81   32.8     6    299.6    10.2    999.0   0.00  
 243    1:00    0.0    82   29.4     6    291.8    10.2    999.0   0.00  
 243    1:10    0.0    80   33.3     6    289.9    10.8    999.0   0.00  
 243    1:20    0.0    78   36.9     4    287.8     6.6    999.0   0.00  
 243    1:30    0.0    76   44.2     3    273.2     7.2    999.0   0.00  
 243    1:40    0.0    77   39.9     6    297.4     7.8    999.0   0.00  
 243    1:50    0.0    78   37.8     7    298.0     9.0    999.0   0.00  
 243    2:00    0.0    75   46.6     3     23.6     6.0    999.0   0.00  
 243    2:10    0.0    71   55.5     3    111.0     4.8    999.0   0.00  
 243    2:20    0.0    69   61.1     5    124.5     7.2    999.0   0.00  
 243    2:30    0.0    72   53.0     5    266.8     8.4    999.0   0.00  
 243    2:40    0.0    72   50.7     5    270.6     7.2    999.0   0.00  
 243    2:50    0.0    72   51.2     3    264.0     6.6    999.0   0.00  
 243    3:00    0.0    74   45.3     8    272.7    10.8    999.0   0.00  
 243    3:10    0.0    74   45.8     8    281.9     9.0    999.0   0.00  
 243    3:20    0.0    76   43.0     6    277.5     8.4    999.0   0.00  
 243    3:30    0.0    76   42.7     5    276.5     7.8    999.0   0.00  
 243    3:40    0.0    76   42.4     4    281.0     6.0    999.0   0.00  
 243    3:50    0.0    76   42.1     5    289.1     8.4    999.0   0.00  
 243    4:00    0.0    72   51.0     4    218.0     7.8    999.0   0.00  
 243    4:10    0.0    72   52.0     8    231.9     9.0    999.0   0.00  
 243    4:20    0.0    72   51.1     5    215.1     7.2    999.0   0.00  
 243    4:30    0.0    73   49.0     4    190.6     6.6    999.0   0.00  
 243    4:40    0.0    73   48.5     5    214.6     6.6    999.0   0.00  
 243    4:50    0.0    75   44.5     2    230.9     6.6    999.0   0.00  
 243    5:00    0.0    74   46.7     3    250.2     4.8    999.0   0.00  

Return to Dakin Peak graphs page.


Western Regional Climate Center,wrcc@dri.edu